TimePST,TemperatureF,Dew PointF,Humidity,Sea Level PressureIn,VisibilityMPH,Wind Direction,Wind SpeedMPH,Gust SpeedMPH,PrecipitationIn,Events,Conditions,WindDirDegrees,DateUTC
12:53 AM,14.0,10.0,84,30.42,9.0,SSW,3.5,-,N/A,,Clear,210,2013-01-15 08:53:00
1:53 AM,15.1,10.0,80,30.46,10.0,South,3.5,-,N/A,,Clear,190,2013-01-15 09:53:00
2:53 AM,12.0,8.1,84,30.46,9.0,Calm,Calm,-,N/A,,Clear,0,2013-01-15 10:53:00
3:53 AM,12.0,7.0,80,30.49,10.0,Variable,3.5,-,N/A,,Clear,0,2013-01-15 11:53:00
4:53 AM,9.0,3.9,80,30.53,10.0,SSW,4.6,-,N/A,,Clear,200,2013-01-15 12:53:00
5:53 AM,8.1,3.0,80,30.55,10.0,Calm,Calm,-,N/A,,Clear,0,2013-01-15 13:53:00
6:53 AM,9.0,3.9,80,30.57,10.0,Variable,3.5,-,N/A,,Clear,0,2013-01-15 14:53:00
7:53 AM,9.0,3.9,80,30.62,10.0,Calm,Calm,-,N/A,,Clear,0,2013-01-15 15:53:00
8:13 AM,10.4,5.0,79,30.45,1.5,SSW,3.5,-,N/A,,Haze,200,2013-01-15 16:13:00
8:17 AM,10.4,6.8,85,30.46,0.8,Calm,Calm,-,N/A,,Mist,0,2013-01-15 16:17:00
8:27 AM,12.2,8.6,85,30.46,1.2,Calm,Calm,-,N/A,,Partly Cloudy,0,2013-01-15 16:27:00
8:31 AM,12.2,8.6,85,30.47,5.0,South,3.5,-,N/A,,Partly Cloudy,180,2013-01-15 16:31:00
8:53 AM,15.1,10.0,80,30.60,10.0,South,3.5,-,N/A,,Clear,190,2013-01-15 16:53:00
9:14 AM,19.4,14.0,80,30.47,1.5,South,4.6,-,N/A,,Haze,180,2013-01-15 17:14:00
9:24 AM,19.4,15.8,86,30.48,4.0,South,4.6,-,N/A,,Haze,180,2013-01-15 17:24:00
9:31 AM,19.4,15.8,86,30.48,10.0,South,4.6,-,N/A,,Clear,190,2013-01-15 17:31:00
9:53 AM,25.0,19.0,78,30.58,10.0,Calm,Calm,-,N/A,,Clear,0,2013-01-15 17:53:00
10:53 AM,35.1,21.9,59,30.54,10.0,Calm,Calm,-,N/A,,Clear,0,2013-01-15 18:53:00
11:53 AM,46.9,15.1,28,30.47,10.0,North,9.2,16.1,N/A,,Clear,10,2013-01-15 19:53:00
12:53 PM,46.9,15.1,28,30.48,10.0,North,11.5,17.3,N/A,,Clear,10,2013-01-15 20:53:00
1:53 PM,45.0,15.1,30,30.49,10.0,North,12.7,-,N/A,,Clear,10,2013-01-15 21:53:00
2:53 PM,45.0,17.1,33,30.51,10.0,North,3.5,-,N/A,,Clear,360,2013-01-15 22:53:00
3:53 PM,43.0,19.0,38,30.54,10.0,Calm,Calm,-,N/A,,Clear,0,2013-01-15 23:53:00
4:53 PM,37.0,21.0,52,30.59,10.0,Calm,Calm,-,N/A,,Clear,0,2013-01-16 00:53:00
5:53 PM,32.0,19.0,59,30.62,10.0,SSW,4.6,-,N/A,,Clear,200,2013-01-16 01:53:00
6:53 PM,30.0,18.0,61,30.63,10.0,Variable,3.5,-,N/A,,Clear,0,2013-01-16 02:53:00
7:53 PM,27.0,17.1,66,30.66,10.0,Variable,3.5,-,N/A,,Clear,0,2013-01-16 03:53:00
8:53 PM,28.9,17.1,61,30.62,10.0,Variable,3.5,-,N/A,,Clear,0,2013-01-16 04:53:00
9:53 PM,28.0,16.0,61,30.58,10.0,Calm,Calm,-,N/A,,Clear,0,2013-01-16 05:53:00
10:53 PM,26.1,16.0,66,30.56,10.0,Variable,3.5,-,N/A,,Clear,0,2013-01-16 06:53:00
11:53 PM,23.0,14.0,68,30.55,10.0,Calm,Calm,-,N/A,,Clear,0,2013-01-16 07:53:00